Earlton, Canada
Current Conditions -  °F | °C
As of 11:00 AM on Sunday 25 Jan 2015 (Local Time) from CYXR Reporting Station
Clear Clear  
Wind Chill: -27°   Ceiling: Unl
Heat Index: -8°   Visibility: 9mi
Dew Point: -15°   Wind: 12mph
Humidity: 71%   Direction: 300°WNW
Pressure: 30"   Gusts: NA
Location:  47.71°N, 79.82°W
Report Text: CYXR 251600Z AUTO 30010KT 9SM CLR M22/M26 A3000 RMK SLP186
Loading
Personal Weather Stations






























Interactive Weather Map New forecast layout! Learn more

10-Day Weather Forecast

Advertisements
Track Severe Weather on mobile